.
WxDataArchive / Data Records for 2007-05-27
2007-05-26 May 2007 2007-05-28

Data Records for Sunday, 27 May 2007

Time	Temp	Chill	HIndex	Humid	Dewpt	 Wind 	HiWind	WindDir	Rain 	Barom 
-----	----	-----	------	-----	-----	------	------	-------	-----	----- 
00:00	64.5	64.5	64.5	93	62.4	1	3	315	0.00	30.031 
00:05	64.5	64.5	64.5	93	62.4	0	2	315	0.00	30.029 
00:10	64.3	64.3	64.3	93	62.2	1	3	270	0.00	30.030 
00:15	64.0	64.0	64.0	92	61.6	1	3	248	0.00	30.031 
00:20	63.9	63.9	63.9	92	61.5	1	5	248	0.00	30.029 
00:25	63.9	63.9	63.9	92	61.5	1	2	248	0.01	30.026 
00:30	63.5	63.5	63.5	92	61.1	1	3	248	0.00	30.018 
00:35	63.4	63.4	63.4	92	61.0	0	2	248	0.00	30.017 
00:40	63.2	63.2	63.2	92	60.8	0	2	248	0.00	30.024 
00:45	63.1	63.1	63.1	92	60.7	0	1	248	0.00	30.019 
00:50	62.9	62.9	62.9	92	60.5	0	2	248	0.00	30.013 
00:55	62.7	62.7	62.7	92	60.3	1	3	248	0.00	30.013 
01:00	62.7	62.7	62.7	92	60.3	1	3	248	0.00	30.013 
01:05	62.6	62.6	62.6	92	60.2	0	2	248	0.00	30.011 
01:10	62.4	62.4	62.4	92	60.0	0	2	248	0.00	30.010 
01:15	62.4	62.4	62.4	92	60.0	1	4	248	0.00	30.003 
01:20	62.4	62.4	62.4	92	60.0	1	2	248	0.00	29.998 
01:25	62.3	62.3	62.3	92	59.9	0	1	248	0.00	29.997 
01:30	62.3	62.3	62.3	92	59.9	0	1	248	0.00	29.996 
01:35	62.3	62.3	62.3	92	59.9	0	2	248	0.00	29.998 
01:40	62.1	62.1	62.1	93	60.0	0	2	248	0.00	29.996 
01:45	62.1	62.1	62.1	93	60.0	0	1	248	0.00	29.996 
01:50	62.0	62.0	62.0	93	59.9	0	1	248	0.00	29.993 
01:55	61.8	61.8	61.8	93	59.8	0	2	248	0.00	29.991 
02:00	61.8	61.8	61.8	93	59.8	0	2	248	0.00	29.988 
02:05	61.6	61.6	61.6	94	59.9	0	1	248	0.00	29.996 
02:10	61.6	61.6	61.6	94	59.9	0	2	248	0.00	29.996 
02:15	61.6	61.6	61.6	94	59.9	0	3	22	0.00	29.994 
02:20	61.8	61.8	61.8	94	60.1	1	3	22	0.00	29.995 
02:25	61.8	61.8	61.8	95	60.3	1	3	248	0.00	29.993 
02:30	62.0	62.0	62.0	95	60.5	0	2	248	0.00	29.992 
02:35	62.0	62.0	62.0	94	60.2	0	2	248	0.00	29.991 
02:40	62.0	62.0	62.0	94	60.2	0	2	248	0.00	29.990 
02:45	62.0	62.0	62.0	94	60.2	0	2	248	0.00	29.990 
02:50	62.1	62.1	62.1	94	60.3	0	1	248	0.00	29.985 
02:55	62.1	62.1	62.1	94	60.3	0	2	248	0.00	29.986 
03:00	62.0	62.0	62.0	94	60.2	0	1	248	0.00	29.984 
03:05	62.1	62.1	62.1	94	60.3	0	1	248	0.00	29.983 
03:10	62.1	62.1	62.1	94	60.3	0	2	248	0.00	29.983 
03:15	62.1	62.1	62.1	94	60.3	0	2	248	0.00	29.983 
03:20	62.1	62.1	62.1	94	60.3	0	2	248	0.00	29.982 
03:25	62.1	62.1	62.1	94	60.3	0	2	248	0.00	29.984 
03:30	62.3	62.3	62.3	94	60.5	0	1	248	0.00	29.984 
03:35	62.3	62.3	62.3	93	60.2	0	2	248	0.00	29.984 
03:40	62.3	62.3	62.3	93	60.2	0	2	248	0.00	29.982 
03:45	62.3	62.3	62.3	93	60.2	0	2	248	0.00	29.982 
03:50	62.3	62.3	62.3	93	60.2	0	2	248	0.00	29.982 
03:55	62.4	62.4	62.4	93	60.3	0	1	248	0.00	29.987 
04:00	62.4	62.4	62.4	92	60.0	0	3	270	0.00	29.988 
04:05	62.4	62.4	62.4	92	60.0	0	2	270	0.00	29.988 
04:10	62.4	62.4	62.4	92	60.0	0	5	248	0.00	29.992 
04:15	62.6	62.6	62.6	92	60.2	0	2	225	0.00	29.994 
04:20	62.6	62.6	62.6	92	60.2	1	3	225	0.00	29.993 
04:25	62.7	62.7	62.7	92	60.3	0	2	248	0.00	29.994 
04:30	62.7	62.7	62.7	91	60.0	1	4	248	0.00	29.995 
04:35	62.7	62.7	62.7	91	60.0	0	1	248	0.00	29.995 
04:40	62.9	62.9	62.9	91	60.2	0	3	248	0.00	29.996 
04:45	62.9	62.9	62.9	91	60.2	0	2	248	0.00	29.997 
04:50	63.1	63.1	63.1	90	60.1	1	4	248	0.00	29.996 
04:55	63.1	63.1	63.1	90	60.1	0	1	248	0.00	29.996 
05:00	63.1	63.1	63.1	89	59.8	1	4	248	0.00	29.997 
05:05	63.2	63.2	63.2	89	59.9	0	1	270	0.00	29.999 
05:10	63.2	63.2	63.2	89	59.9	0	3	248	0.00	29.998 
05:15	63.2	63.2	63.2	89	59.9	0	2	248	0.00	29.998 
05:20	63.2	63.2	63.2	88	59.6	0	2	248	0.00	29.998 
05:25	63.4	63.4	63.4	88	59.8	1	3	248	0.00	29.997 
05:30	63.5	63.5	63.5	88	59.9	1	3	248	0.00	29.998 
05:35	63.5	63.5	63.5	88	59.9	0	2	248	0.00	29.997 
05:40	63.5	63.5	63.5	88	59.9	1	3	270	0.00	29.999 
05:45	63.7	63.7	63.7	88	60.1	1	3	270	0.00	29.999 
05:50	63.7	63.7	63.7	88	60.1	0	2	248	0.00	29.999 
05:55	63.7	63.7	63.7	88	60.1	0	2	248	0.00	29.999 
06:00	63.9	63.9	63.9	88	60.3	0	2	248	0.00	30.000 
06:05	63.9	63.9	63.9	88	60.3	1	2	248	0.00	30.004 
06:10	63.9	63.9	63.9	87	59.9	1	3	270	0.00	30.007 
06:15	64.0	64.0	64.0	88	60.4	0	2	270	0.00	30.007 
06:20	64.0	64.0	64.0	87	60.0	0	2	270	0.00	30.010 
06:25	64.2	64.2	64.2	88	60.6	0	2	270	0.00	30.008 
06:30	64.2	64.2	64.2	88	60.6	0	1	270	0.00	30.008 
06:35	64.2	64.2	64.2	87	60.2	0	2	270	0.00	30.010 
06:40	64.3	64.3	64.3	87	60.3	0	3	248	0.00	30.009 
06:45	64.3	64.3	64.3	87	60.3	0	3	248	0.00	30.010 
06:50	64.3	64.3	64.3	87	60.3	0	1	248	0.00	30.010 
06:55	64.3	64.3	64.3	87	60.3	0	1	248	0.00	30.010 
07:00	64.5	64.5	64.5	87	60.5	0	1	248	0.00	30.008 
07:05	64.7	64.7	64.7	87	60.7	0	1	248	0.00	30.009 
07:10	64.8	64.8	64.8	86	60.5	0	1	248	0.00	30.010 
07:15	65.2	65.2	65.2	86	60.9	1	4	248	0.00	30.012 
07:20	65.3	65.3	65.3	85	60.7	1	5	248	0.00	30.013 
07:25	65.6	65.6	65.6	85	61.0	1	3	248	0.00	30.013 
07:30	65.8	65.8	65.8	84	60.8	1	4	248	0.00	30.012 
07:35	66.1	66.1	66.1	84	61.1	0	2	248	0.00	30.011 
07:40	66.3	66.3	66.3	82	60.6	1	3	248	0.00	30.011 
07:45	66.4	66.4	66.4	83	61.1	0	1	248	0.00	30.012 
07:50	66.6	66.6	66.6	82	60.9	1	2	248	0.00	30.011 
07:55	66.9	66.9	66.9	82	61.2	1	2	248	0.00	30.011 
08:00	67.1	67.1	67.1	81	61.1	1	3	270	0.00	30.013 
08:05	67.3	67.3	67.3	80	60.9	1	4	270	0.00	30.014 
08:10	67.3	67.3	67.3	80	60.9	1	3	248	0.00	30.016 
08:15	67.6	67.6	67.6	80	61.2	1	2	248	0.00	30.019 
08:20	67.8	67.8	67.8	79	61.0	1	3	248	0.00	30.023 
08:25	67.9	67.9	67.9	79	61.1	1	2	270	0.00	30.023 
08:30	68.1	68.1	68.1	78	61.0	1	4	248	0.00	30.026 
08:35	68.3	68.3	68.3	78	61.2	2	4	248	0.00	30.026 
08:40	68.3	68.3	68.3	78	61.2	1	4	248	0.00	30.025 
08:45	68.3	68.3	68.3	78	61.2	1	5	248	0.00	30.026 
08:50	68.3	68.3	68.3	78	61.2	2	9	270	0.00	30.026 
08:55	68.4	68.4	68.4	78	61.3	1	3	248	0.00	30.027 
09:00	68.4	68.4	68.4	77	60.9	2	4	248	0.00	30.028 
09:05	68.3	68.3	68.3	78	61.2	1	3	248	0.00	30.030 
09:10	68.3	68.3	68.3	78	61.2	1	4	248	0.00	30.029 
09:15	68.1	68.1	68.1	78	61.0	1	6	248	0.00	30.030 
09:20	68.1	68.1	68.1	78	61.0	1	4	248	0.00	30.029 
09:25	68.4	68.4	68.4	78	61.3	1	4	248	0.00	30.029 
09:30	68.8	68.8	68.8	77	61.3	1	2	292	0.00	30.027 
09:35	68.9	68.9	68.9	76	61.0	2	4	248	0.00	30.029 
09:40	69.3	69.3	69.3	76	61.4	1	4	270	0.00	30.030 
09:45	69.6	69.6	69.6	77	62.1	2	7	248	0.00	30.029 
09:50	69.8	69.8	69.8	75	61.5	2	4	315	0.00	30.029 
09:55	69.9	69.9	69.9	75	61.6	3	5	248	0.00	30.028 
10:00	70.6	70.6	70.6	73	61.5	3	6	270	0.00	30.029 
10:05	71.1	71.1	71.1	73	62.0	3	5	248	0.00	30.027 
10:10	71.8	71.8	71.8	72	62.3	2	8	270	0.00	30.025 
10:15	72.3	72.3	72.3	71	62.4	3	5	248	0.00	30.025 
10:20	72.3	72.3	72.3	70	62.0	3	6	270	0.00	30.026 
10:25	72.3	72.3	72.3	70	62.0	3	6	270	0.00	30.027 
10:30	72.7	72.7	72.7	68	61.5	3	7	270	0.00	30.028 
10:35	72.5	72.5	72.5	69	61.7	3	6	248	0.00	30.029 
10:40	72.1	72.1	72.1	69	61.4	3	6	270	0.00	30.027 
10:45	71.8	71.8	71.8	70	61.5	2	4	270	0.00	30.028 
10:50	71.6	71.6	71.6	71	61.7	2	4	270	0.00	30.027 
10:55	71.6	71.6	71.6	71	61.7	2	6	270	0.00	30.033 
11:00	71.5	71.5	71.5	71	61.6	2	6	270	0.00	30.034 
11:05	71.1	71.1	71.1	71	61.2	1	4	248	0.00	30.035 
11:10	70.9	70.9	70.9	73	61.8	2	4	248	0.00	30.038 
11:15	70.8	70.8	70.8	73	61.7	1	4	270	0.00	30.038 
11:20	70.8	70.8	70.8	74	62.1	1	4	270	0.00	30.037 
11:25	70.8	70.8	70.8	73	61.7	1	2	248	0.00	30.034 
11:30	70.8	70.8	70.8	74	62.1	1	3	248	0.00	30.035 
11:35	70.8	70.8	70.8	73	61.7	1	4	270	0.00	30.033 
11:40	70.4	70.4	70.4	75	62.1	2	4	270	0.00	30.038 
11:45	70.1	70.1	70.1	76	62.2	2	3	270	0.00	30.037 
11:50	69.8	69.8	69.8	77	62.3	1	2	315	0.00	30.035 
11:55	69.6	69.6	69.6	79	62.8	0	2	270	0.00	30.035 
12:00	69.4	69.4	69.4	78	62.2	1	3	270	0.00	30.040 
12:05	69.1	69.1	69.1	78	61.9	1	3	270	0.01	30.041 
12:10	69.1	69.1	69.1	78	61.9	1	5	248	0.00	30.039 
12:15	69.1	69.1	69.1	79	62.3	1	2	225	0.00	30.038 
12:20	69.3	69.3	69.3	79	62.5	1	3	270	0.00	30.039 
12:25	69.4	69.4	69.4	79	62.6	1	3	248	0.00	30.039 
12:30	69.6	69.6	69.6	79	62.8	1	3	248	0.00	30.041 
12:35	69.4	69.4	69.4	78	62.2	1	5	248	0.00	30.042 
12:40	69.4	69.4	69.4	80	63.0	1	3	248	0.00	30.043 
12:45	69.4	69.4	69.4	79	62.6	1	2	248	0.00	30.043 
12:50	69.4	69.4	69.4	80	63.0	1	3	248	0.00	30.045 
12:55	69.3	69.3	69.3	79	62.5	1	4	225	0.00	30.044 
13:00	69.1	69.1	69.1	80	62.7	1	4	248	0.00	30.044 
13:05	68.9	68.9	68.9	80	62.5	2	4	270	0.00	30.045 
13:10	68.8	68.8	68.8	80	62.4	1	3	248	0.00	30.045 
13:15	68.8	68.8	68.8	81	62.7	1	4	248	0.00	30.046 
13:20	68.9	68.9	68.9	81	62.8	1	3	270	0.00	30.042 
13:25	68.9	68.9	68.9	81	62.8	1	3	248	0.00	30.036 
13:30	69.3	69.3	69.3	79	62.5	2	4	270	0.00	30.038 
13:35	69.3	69.3	69.3	79	62.5	2	5	248	0.00	30.036 
13:40	69.6	69.6	69.6	80	63.1	1	5	248	0.00	30.034 
13:45	69.9	69.9	69.9	78	62.7	2	5	270	0.00	30.031 
13:50	70.3	70.3	70.3	77	62.7	2	4	270	0.00	30.031 
13:55	70.3	70.3	70.3	76	62.4	1	4	292	0.00	30.028 
14:00	70.3	70.3	70.3	75	62.0	2	4	248	0.00	30.028 
14:05	70.3	70.3	70.3	75	62.0	2	6	248	0.00	30.030 
14:10	70.3	70.3	70.3	75	62.0	2	4	248	0.00	30.030 
14:15	70.3	70.3	70.3	75	62.0	2	7	270	0.00	30.030 
14:20	70.1	70.1	70.1	76	62.2	1	3	248	0.00	30.029 
14:25	69.9	69.9	69.9	76	62.0	2	4	248	0.00	30.032 
14:30	69.9	69.9	69.9	76	62.0	2	5	248	0.00	30.035 
14:35	69.9	69.9	69.9	76	62.0	2	6	248	0.00	30.038 
14:40	69.9	69.9	69.9	76	62.0	1	4	248	0.00	30.036 
14:45	69.8	69.8	69.8	77	62.3	1	3	248	0.00	30.038 
14:50	69.8	69.8	69.8	77	62.3	1	3	248	0.00	30.039 
14:55	69.8	69.8	69.8	77	62.3	2	4	270	0.00	30.040 
15:00	69.8	69.8	69.8	78	62.6	2	4	270	0.00	30.041 
15:05	69.9	69.9	69.9	79	63.1	1	2	248	0.00	30.039 
15:10	69.9	69.9	69.9	77	62.3	2	4	248	0.00	30.035 
15:15	69.9	69.9	69.9	77	62.3	2	4	248	0.00	30.034 
15:20	70.3	70.3	70.3	76	62.4	2	5	270	0.00	30.034 
15:25	70.1	70.1	70.1	76	62.2	2	5	248	0.00	30.033 
15:30	70.1	70.1	70.1	77	62.5	1	3	270	0.00	30.033 
15:35	70.1	70.1	70.1	77	62.5	2	4	248	0.00	30.033 
15:40	70.3	70.3	70.3	76	62.4	2	4	248	0.00	30.031 
15:45	70.4	70.4	70.4	77	62.8	1	3	270	0.00	30.031 
15:50	70.6	70.6	70.6	77	63.0	1	2	248	0.00	30.030 
15:55	70.8	70.8	70.8	77	63.2	1	4	248	0.00	30.030 
16:00	70.9	70.9	70.9	76	62.9	2	5	270	0.00	30.029 
16:05	71.1	71.1	71.1	75	62.8	2	5	248	0.00	30.028 
16:10	71.5	71.5	71.5	75	63.1	1	4	248	0.00	30.026 
16:15	71.5	71.5	71.5	74	62.8	1	4	248	0.00	30.026 
16:20	71.3	71.3	71.3	73	62.2	2	5	248	0.00	30.026 
16:25	71.1	71.1	71.1	73	62.0	2	7	270	0.00	30.026 
16:30	71.3	71.3	71.3	75	63.0	1	3	270	0.00	30.023 
16:35	71.5	71.5	71.5	74	62.8	1	3	248	0.00	30.022 
16:40	72.0	72.0	72.0	74	63.2	1	3	248	0.00	30.019 
16:45	72.7	72.7	72.7	70	62.3	2	5	248	0.00	30.016 
16:50	73.0	73.0	73.0	72	63.4	1	3	292	0.00	30.015 
16:55	73.2	73.2	73.2	70	62.8	2	7	248	0.00	30.016 
17:00	73.0	73.0	73.0	69	62.2	2	7	270	0.00	30.014 
17:05	72.8	72.8	72.8	69	62.0	2	5	270	0.00	30.013 
17:10	72.5	72.5	72.5	70	62.1	2	4	248	0.00	30.012 
17:15	72.3	72.3	72.3	70	62.0	2	8	248	0.00	30.011 
17:20	72.0	72.0	72.0	70	61.7	2	5	248	0.00	30.010 
17:25	72.1	72.1	72.1	71	62.2	1	3	270	0.00	30.010 
17:30	72.5	72.5	72.5	70	62.1	1	2	292	0.00	30.008 
17:35	72.5	72.5	72.5	70	62.1	2	6	248	0.00	30.007 
17:40	72.3	72.3	72.3	70	62.0	2	5	248	0.00	30.004 
17:45	72.1	72.1	72.1	69	61.4	2	4	270	0.00	30.004 
17:50	72.1	72.1	72.1	69	61.4	1	6	248	0.00	30.004 
17:55	72.1	72.1	72.1	70	61.8	1	3	270	0.00	30.001 
18:00	72.1	72.1	72.1	71	62.2	1	4	248	0.00	29.998 
18:05	72.1	72.1	72.1	70	61.8	1	4	248	0.00	29.996 
18:10	72.1	72.1	72.1	69	61.4	2	5	270	0.00	29.995 
18:15	72.0	72.0	72.0	69	61.3	1	4	248	0.00	29.995 
18:20	71.8	71.8	71.8	69	61.1	2	6	248	0.00	29.996 
18:25	71.8	71.8	71.8	70	61.5	0	3	270	0.00	29.997 
18:30	71.8	71.8	71.8	69	61.1	1	4	248	0.00	29.998 
18:35	71.8	71.8	71.8	69	61.1	2	4	248	0.00	29.999 
18:40	71.8	71.8	71.8	70	61.5	1	4	270	0.00	30.004 
18:45	71.6	71.6	71.6	71	61.7	1	4	248	0.00	30.002 
18:50	71.6	71.6	71.6	71	61.7	1	3	270	0.00	30.007 
18:55	71.6	71.6	71.6	71	61.7	1	3	270	0.00	30.007 
19:00	71.6	71.6	71.6	72	62.1	1	3	248	0.00	30.010 
19:05	71.3	71.3	71.3	72	61.8	1	3	248	0.00	30.009 
19:10	71.1	71.1	71.1	73	62.0	1	2	248	0.00	30.010 
19:15	70.9	70.9	70.9	73	61.8	1	2	248	0.00	30.010 
19:20	70.8	70.8	70.8	73	61.7	0	2	248	0.00	30.010 
19:25	70.8	70.8	70.8	74	62.1	0	1	248	0.00	30.011 
19:30	70.4	70.4	70.4	74	61.7	0	1	248	0.00	30.011 
19:35	70.3	70.3	70.3	75	62.0	0	2	292	0.00	30.014 
19:40	70.1	70.1	70.1	75	61.8	0	2	292	0.00	30.015 
19:45	69.9	69.9	69.9	75	61.6	1	4	225	0.00	30.017 
19:50	69.9	69.9	69.9	76	62.0	0	2	225	0.00	30.018 
19:55	69.6	69.6	69.6	77	62.1	1	3	225	0.00	30.019 
20:00	69.6	69.6	69.6	77	62.1	0	2	225	0.00	30.022 
20:05	69.3	69.3	69.3	77	61.8	0	1	225	0.00	30.024 
20:10	69.1	69.1	69.1	78	61.9	0	1	225	0.00	30.024 
20:15	68.8	68.8	68.8	79	62.0	0	1	225	0.00	30.026 
20:20	68.6	68.6	68.6	80	62.2	0	2	225	0.00	30.027 
20:25	68.4	68.4	68.4	80	62.0	0	1	225	0.00	30.027 
20:30	68.3	68.3	68.3	81	62.2	0	2	225	0.00	30.027 
20:35	67.9	67.9	67.9	81	61.8	0	1	225	0.00	30.027 
20:40	67.8	67.8	67.8	82	62.1	0	1	225	0.00	30.027 
20:45	67.4	67.4	67.4	82	61.7	0	0	---	0.00	30.028 
20:50	67.3	67.3	67.3	83	62.0	0	1	225	0.00	30.031 
20:55	66.9	66.9	66.9	84	61.9	0	0	---	0.00	30.033 
21:00	66.8	66.8	66.8	84	61.8	0	1	225	0.00	30.032 
21:05	66.6	66.6	66.6	85	61.9	0	1	225	0.00	30.030 
21:10	66.6	66.6	66.6	86	62.3	0	1	225	0.00	30.030 
21:15	66.6	66.6	66.6	86	62.3	0	2	225	0.00	30.031 
21:20	66.6	66.6	66.6	86	62.3	0	1	225	0.00	30.033 
21:25	66.6	66.6	66.6	86	62.3	0	2	225	0.00	30.036 
21:30	66.6	66.6	66.6	86	62.3	0	1	225	0.00	30.038 
21:35	66.6	66.6	66.6	86	62.3	0	1	225	0.00	30.040 
21:40	66.6	66.6	66.6	86	62.3	0	1	225	0.00	30.041 
21:45	66.6	66.6	66.6	86	62.3	0	2	225	0.00	30.041 
21:50	66.6	66.6	66.6	86	62.3	1	3	225	0.00	30.043 
21:55	66.6	66.6	66.6	86	62.3	0	2	248	0.00	30.047 
22:00	66.4	66.4	66.4	86	62.1	0	1	248	0.00	30.047 
22:05	66.4	66.4	66.4	87	62.4	0	2	248	0.00	30.048 
22:10	66.3	66.3	66.3	87	62.3	0	1	248	0.00	30.046 
22:15	66.1	66.1	66.1	87	62.1	0	1	248	0.00	30.046 
22:20	66.1	66.1	66.1	88	62.4	0	1	248	0.00	30.046 
22:25	66.0	66.0	66.0	88	62.3	0	1	248	0.00	30.048 
22:30	66.0	66.0	66.0	88	62.3	0	2	248	0.00	30.050 
22:35	66.0	66.0	66.0	88	62.3	0	0	---	0.00	30.049 
22:40	65.8	65.8	65.8	89	62.5	0	1	248	0.00	30.049 
22:45	65.8	65.8	65.8	89	62.5	0	1	248	0.00	30.049 
22:50	65.6	65.6	65.6	89	62.3	0	2	248	0.00	30.054 
22:55	65.6	65.6	65.6	90	62.6	0	2	248	0.00	30.056 
23:00	65.5	65.5	65.5	90	62.5	0	1	248	0.00	30.057 
23:05	65.3	65.3	65.3	90	62.3	0	0	---	0.00	30.060 
23:10	65.2	65.2	65.2	90	62.2	0	1	248	0.00	30.060 
23:15	65.0	65.0	65.0	91	62.3	0	0	---	0.00	30.060 
23:20	64.8	64.8	64.8	91	62.1	0	0	---	0.00	30.060 
23:25	64.5	64.5	64.5	91	61.8	0	0	---	0.00	30.061 
23:30	64.3	64.3	64.3	92	61.9	0	0	---	0.00	30.065 
23:35	64.2	64.2	64.2	92	61.8	0	0	---	0.00	30.067 
23:40	64.2	64.2	64.2	93	62.1	0	0	---	0.00	30.068 
23:45	64.0	64.0	64.0	93	61.9	0	0	---	0.00	30.066 
23:50	63.7	63.7	63.7	93	61.6	0	0	---	0.00	30.066 
23:55	63.9	63.9	63.9	94	62.1	0	1	248	0.00	30.065 

CoCoRaHS
IN-AL-39
A2 Web Hosting
Creative Commons License
GoDaddy
Look for:

loaded 2017-10-16 18:15:37 • last modified 2010-11-18 10:43:29
Privacy PolicyDisclaimer
• wx.awcolley.com is powered by PmWiki v.2002016 •
• all content (unless otherwise noted) © 2017 A W Colley